Time;durP1;ratioP1;P1;durP2;ratioP2;P2;SDS_P1;SDS_P2;PMS_P1;PMS_P2;Temp;Humidity;BMP_temperature;BMP_pressure;BME280_temperature;BME280_humidity;BME280_pressure;Samples;Min_cycle;Max_cycle;Signal;HPM_P1;HPM_P2
2022/01/06 00:00:32;;;;;;;15.43;2.20;;;;;;;13.90;100.00;101825.41;5074999;28;20519;-90
2022/01/06 00:03:00;;;;;;;10.13;2.60;;;;;;;13.79;100.00;101803.91;5097757;28;20440;-89
2022/01/06 00:05:28;;;;;;;15.33;2.70;;;;;;;13.90;100.00;101827.28;5096945;28;20464;-89
2022/01/06 00:08:01;;;;;;;18.23;2.80;;;;;;;13.85;100.00;101816.03;5096259;28;20440;-89
2022/01/06 00:10:30;;;;;;;17.87;3.17;;;;;;;13.81;100.00;101819.16;5086762;28;20434;-90
2022/01/06 00:13:14;;;;;;;16.60;2.50;;;;;;;13.86;100.00;101820.47;5090285;28;20458;-90
2022/01/06 00:15:59;;;;;;;19.87;3.10;;;;;;;13.87;100.00;101819.41;5078458;28;20465;-89
2022/01/06 00:23:08;;;;;;;19.83;2.30;;;;;;;13.85;100.00;101824.28;5064757;28;20508;-90
2022/01/06 00:24:18;;;;;;;19.30;2.63;;;;;;;13.82;100.00;101825.50;5079582;28;20940;-89
2022/01/06 00:26:47;;;;;;;12.30;2.00;;;;;;;13.81;100.00;101821.06;5075885;28;20987;-89
2022/01/06 00:29:15;;;;;;;12.83;3.30;;;;;;;13.77;100.00;101831.56;5059860;28;20510;-89
2022/01/06 00:31:43;;;;;;;15.53;4.30;;;;;;;13.67;100.00;101811.72;5075636;28;20441;-89
2022/01/06 00:34:11;;;;;;;18.80;3.40;;;;;;;13.73;100.00;101824.72;5075791;28;20438;-89
2022/01/06 00:36:40;;;;;;;12.60;3.13;;;;;;;13.71;100.00;101817.72;5076372;28;20426;-89
2022/01/06 00:39:09;;;;;;;11.87;3.27;;;;;;;13.65;100.00;101810.25;5059761;28;20464;-89
2022/01/06 00:41:38;;;;;;;11.20;2.03;;;;;;;13.72;100.00;101805.69;5060092;28;20464;-89
2022/01/06 00:44:06;;;;;;;10.37;1.90;;;;;;;13.74;100.00;101809.94;5092101;28;20438;-89
2022/01/06 00:46:34;;;;;;;12.50;2.03;;;;;;;13.69;100.00;101812.41;5059495;28;20469;-89
2022/01/06 00:49:02;;;;;;;5.43;2.00;;;;;;;13.71;100.00;101804.81;5059413;28;20437;-89
2022/01/06 00:51:30;;;;;;;16.73;2.60;;;;;;;13.61;100.00;101804.28;5059114;28;20506;-89
2022/01/06 00:53:58;;;;;;;17.43;3.17;;;;;;;13.57;100.00;101802.94;5059198;28;20507;-89
2022/01/06 00:56:25;;;;;;;10.97;2.27;;;;;;;13.64;100.00;101805.78;5076223;28;20429;-89
2022/01/06 00:58:53;;;;;;;11.20;2.10;;;;;;;13.60;100.00;101807.19;5091822;28;20532;-89
2022/01/06 01:01:22;;;;;;;12.87;2.40;;;;;;;13.61;100.00;101809.75;5075439;28;20444;-89
2022/01/06 01:03:50;;;;;;;12.33;2.47;;;;;;;13.59;100.00;101805.50;5092429;28;20425;-89
2022/01/06 01:06:18;;;;;;;19.57;2.27;;;;;;;13.60;100.00;101808.06;5059006;28;20575;-89
2022/01/06 01:08:46;;;;;;;14.83;2.40;;;;;;;13.60;100.00;101812.69;5059036;28;20453;-89
2022/01/06 01:11:14;;;;;;;17.03;3.13;;;;;;;13.59;100.00;101800.84;5075676;28;20498;-89
2022/01/06 01:13:56;;;;;;;19.60;2.63;;;;;;;13.57;100.00;101805.69;5091791;28;20433;-89
2022/01/06 01:16:29;;;;;;;17.03;2.37;;;;;;;13.56;100.00;101792.97;5065945;28;20957;-90
2022/01/06 01:18:57;;;;;;;14.43;2.60;;;;;;;13.57;100.00;101802.94;5064197;28;20435;-89
2022/01/06 01:21:29;;;;;;;9.90;2.53;;;;;;;13.53;100.00;101790.59;5062999;28;20428;-89
2022/01/06 01:23:58;;;;;;;17.47;2.50;;;;;;;13.53;100.00;101801.59;5063528;28;20527;-89
2022/01/06 01:26:29;;;;;;;20.50;3.50;;;;;;;13.51;100.00;101808.31;5078544;28;20483;-89
2022/01/06 01:28:57;;;;;;;25.30;3.50;;;;;;;13.51;100.00;101802.81;5095210;28;20845;-90
2022/01/06 01:31:27;;;;;;;27.10;4.53;;;;;;;13.46;100.00;101795.16;5063318;28;20956;-89
2022/01/06 01:34:08;;;;;;;27.57;4.73;;;;;;;13.48;100.00;101796.66;5067203;28;20523;-90
2022/01/06 01:36:43;;;;;;;29.97;5.93;;;;;;;13.44;100.00;101802.72;5085507;28;20518;-89
2022/01/06 01:39:10;;;;;;;31.30;5.67;;;;;;;13.42;100.00;101802.91;5099526;28;20489;-89
2022/01/06 01:41:38;;;;;;;30.20;4.93;;;;;;;13.44;100.00;101808.22;5083063;28;20447;-89
2022/01/06 01:44:13;;;;;;;19.17;3.80;;;;;;;13.44;100.00;101810.97;5066446;28;20493;-89
2022/01/06 01:46:44;;;;;;;28.20;5.53;;;;;;;13.42;100.00;101810.31;5116835;28;20475;-89
2022/01/06 01:49:30;;;;;;;26.17;3.90;;;;;;;13.31;100.00;101819.81;5066490;28;20999;-89
2022/01/06 01:51:59;;;;;;;22.27;3.57;;;;;;;13.24;100.00;101826.25;5085618;28;20515;-89
2022/01/06 01:54:27;;;;;;;18.27;4.20;;;;;;;13.19;100.00;101823.19;5065805;28;20958;-90
2022/01/06 01:56:54;;;;;;;20.20;4.00;;;;;;;13.16;100.00;101820.81;5082741;28;20444;-89
2022/01/06 01:59:22;;;;;;;21.33;4.87;;;;;;;13.05;100.00;101813.84;5082350;28;20438;-90
2022/01/06 02:01:53;;;;;;;21.57;3.67;;;;;;;13.10;100.00;101830.59;5099064;28;20483;-91
2022/01/06 02:04:23;;;;;;;28.47;4.77;;;;;;;13.02;100.00;101837.03;5080654;28;20934;-90
2022/01/06 02:06:50;;;;;;;30.03;4.20;;;;;;;12.97;100.00;101831.22;5098712;28;20575;-89
2022/01/06 02:09:18;;;;;;;29.73;4.33;;;;;;;12.92;100.00;101824.56;5096943;28;20463;-89
2022/01/06 02:11:45;;;;;;;22.13;2.93;;;;;;;12.92;100.00;101819.94;5098665;28;20444;-90
2022/01/06 02:14:13;;;;;;;22.87;3.67;;;;;;;12.94;100.00;101825.25;5052024;28;20485;-89
2022/01/06 02:16:42;;;;;;;26.40;3.90;;;;;;;12.85;100.00;101821.72;5078381;28;20472;-90
2022/01/06 02:19:10;;;;;;;19.80;5.00;;;;;;;12.82;100.00;101830.31;5062768;28;20429;-90
2022/01/06 02:21:41;;;;;;;26.07;3.80;;;;;;;12.82;100.00;101849.53;5057911;28;20441;-90
2022/01/06 02:24:08;;;;;;;27.83;4.20;;;;;;;12.74;100.00;101846.81;5044163;28;20446;-90
2022/01/06 02:26:36;;;;;;;19.77;3.53;;;;;;;12.70;100.00;101849.06;5078499;28;20500;-90
2022/01/06 02:29:06;;;;;;;16.63;3.60;;;;;;;12.67;100.00;101843.09;5078515;28;20494;-90
2022/01/06 02:31:43;;;;;;;14.13;3.10;;;;;;;12.66;100.00;101838.66;5075612;28;20448;-90
2022/01/06 02:34:11;;;;;;;16.57;3.87;;;;;;;12.69;100.00;101830.06;5075224;28;20554;-89
2022/01/06 02:36:39;;;;;;;19.50;5.60;;;;;;;12.70;100.00;101821.63;5078065;28;20444;-89
2022/01/06 02:39:07;;;;;;;26.40;4.97;;;;;;;12.66;100.00;101841.41;5083116;28;20939;-89
2022/01/06 02:41:35;;;;;;;18.80;3.00;;;;;;;12.59;100.00;101840.41;5066023;28;20450;-89
2022/01/06 02:44:38;;;;;;;17.90;3.57;;;;;;;12.57;100.00;101853.44;5060673;28;20442;-89
2022/01/06 02:47:07;;;;;;;17.63;3.30;;;;;;;12.43;100.00;101842.19;5089360;28;20472;-89
2022/01/06 02:49:35;;;;;;;24.50;3.80;;;;;;;12.37;100.00;101820.13;5076992;28;20532;-90
2022/01/06 02:52:03;;;;;;;27.47;4.30;;;;;;;12.43;100.00;101846.84;5061868;28;20467;-89
2022/01/06 02:54:31;;;;;;;15.23;3.50;;;;;;;12.29;100.00;101831.16;5094326;28;20445;-89
2022/01/06 02:56:58;;;;;;;22.40;3.20;;;;;;;12.36;100.00;101843.09;5094793;28;20433;-89
2022/01/06 02:59:26;;;;;;;25.83;3.43;;;;;;;12.33;100.00;101859.88;5077929;28;20445;-89
2022/01/06 03:01:54;;;;;;;15.73;3.90;;;;;;;12.33;100.00;101873.59;5077542;28;20543;-90
2022/01/06 03:04:23;;;;;;;18.40;3.10;;;;;;;12.30;100.00;101869.34;5061502;28;20445;-90
2022/01/06 03:06:52;;;;;;;14.27;3.67;;;;;;;12.25;100.00;101869.00;5093784;28;20476;-90
2022/01/06 03:09:26;;;;;;;23.10;3.87;;;;;;;12.16;100.00;101856.34;5077917;28;20490;-90
2022/01/06 03:11:54;;;;;;;15.73;3.00;;;;;;;12.06;100.00;101842.03;5062646;28;20433;-90
2022/01/06 03:14:24;;;;;;;20.10;3.00;;;;;;;11.97;100.00;101834.84;5093975;28;20473;-90
2022/01/06 03:16:52;;;;;;;22.53;3.50;;;;;;;11.95;100.00;101854.19;5094242;28;20510;-90
2022/01/06 03:19:19;;;;;;;16.63;3.07;;;;;;;11.93;100.00;101855.44;5061111;28;20448;-90
2022/01/06 03:21:47;;;;;;;19.80;3.93;;;;;;;11.80;100.00;101855.97;5061055;28;20916;-90
2022/01/06 03:24:16;;;;;;;23.03;3.20;;;;;;;11.71;100.00;101846.88;5061424;28;20440;-90
2022/01/06 03:26:44;;;;;;;27.73;3.57;;;;;;;11.71;100.00;101851.50;5077375;28;20477;-90
2022/01/06 03:29:12;;;;;;;20.53;2.93;;;;;;;11.68;100.00;101855.44;5077292;28;20448;-90
2022/01/06 03:31:40;;;;;;;19.30;2.80;;;;;;;11.67;100.00;101861.09;5077315;28;20938;-90
2022/01/06 03:34:08;;;;;;;20.73;3.07;;;;;;;11.67;100.00;101870.16;5060994;28;20434;-90
2022/01/06 03:36:36;;;;;;;20.43;3.47;;;;;;;11.67;100.00;101872.03;5061072;28;20846;-90
2022/01/06 03:39:04;;;;;;;23.17;3.43;;;;;;;11.65;100.00;101864.00;5060938;28;20433;-90
2022/01/06 03:41:33;;;;;;;26.27;2.87;;;;;;;11.56;100.00;101848.59;5060755;28;20445;-90
2022/01/06 03:44:01;;;;;;;13.67;3.00;;;;;;;11.54;100.00;101850.69;5093913;28;20486;-89
2022/01/06 03:46:29;;;;;;;17.43;3.13;;;;;;;11.54;100.00;101861.63;5077123;28;21071;-90
2022/01/06 03:48:57;;;;;;;19.47;3.10;;;;;;;11.49;100.00;101869.50;5061071;28;20429;-90
2022/01/06 03:51:25;;;;;;;16.97;3.27;;;;;;;11.45;100.00;101851.69;5077347;28;21021;-90
2022/01/06 03:53:53;;;;;;;26.93;4.07;;;;;;;11.43;100.00;101859.22;5093489;28;20456;-90
2022/01/06 03:56:20;;;;;;;18.80;2.90;;;;;;;11.36;100.00;101836.28;5076854;28;20438;-90
2022/01/06 03:58:49;;;;;;;21.30;2.90;;;;;;;11.31;100.00;101846.94;5060402;28;20954;-90
2022/01/06 04:01:17;;;;;;;19.40;3.27;;;;;;;11.26;100.00;101863.84;5093365;28;20927;-90
2022/01/06 04:03:47;;;;;;;26.47;4.67;;;;;;;11.23;100.00;101877.03;5076752;28;20517;-90
2022/01/06 04:06:15;;;;;;;20.57;2.73;;;;;;;11.19;100.00;101861.97;5060465;28;20444;-90
2022/01/06 04:08:44;;;;;;;19.00;2.80;;;;;;;11.15;100.00;101849.69;5060446;28;20429;-90
2022/01/06 04:11:12;;;;;;;15.40;3.63;;;;;;;11.15;100.00;101844.19;5060389;28;20437;-90
2022/01/06 04:13:40;;;;;;;23.03;3.03;;;;;;;11.11;100.00;101860.09;5076531;28;20954;-90
2022/01/06 04:16:10;;;;;;;13.57;3.83;;;;;;;11.07;100.00;101870.50;5076629;28;20469;-90
2022/01/06 04:18:38;;;;;;;13.83;3.60;;;;;;;11.01;100.00;101848.44;5077070;28;20433;-89
2022/01/06 04:21:07;;;;;;;12.70;2.53;;;;;;;11.06;100.00;101863.34;5059917;28;20444;-90
2022/01/06 04:23:35;;;;;;;18.37;3.50;;;;;;;11.01;100.00;101854.78;5076620;28;20451;-90
2022/01/06 04:26:03;;;;;;;13.60;2.97;;;;;;;11.05;100.00;101864.34;5076323;28;20439;-90
2022/01/06 04:28:31;;;;;;;21.27;3.80;;;;;;;11.04;100.00;101867.25;5075718;28;20485;-89
2022/01/06 04:30:59;;;;;;;18.27;3.20;;;;;;;10.97;100.00;101842.44;5059709;28;20926;-90
2022/01/06 04:33:27;;;;;;;28.73;3.97;;;;;;;11.03;100.00;101841.78;5076369;28;20935;-90
2022/01/06 04:35:55;;;;;;;15.80;3.63;;;;;;;11.07;100.00;101840.41;5059845;28;20802;-90
2022/01/06 04:38:22;;;;;;;18.00;3.13;;;;;;;11.06;100.00;101851.53;5076376;28;20864;-89
2022/01/06 04:40:52;;;;;;;24.03;3.37;;;;;;;11.08;100.00;101854.97;5059699;28;20516;-89
2022/01/06 04:43:21;;;;;;;21.17;3.20;;;;;;;11.07;100.00;101848.63;5076923;28;20429;-90
2022/01/06 04:45:48;;;;;;;15.77;3.60;;;;;;;11.01;100.00;101841.09;5059826;28;20969;-89
2022/01/06 04:48:16;;;;;;;21.20;4.40;;;;;;;10.98;100.00;101821.44;5059575;28;20522;-90
2022/01/06 04:50:44;;;;;;;22.73;4.33;;;;;;;11.04;100.00;101843.50;5059205;28;20940;-90
2022/01/06 04:53:11;;;;;;;20.30;3.70;;;;;;;10.99;100.00;101856.81;5075862;28;20969;-90
2022/01/06 04:55:39;;;;;;;20.40;3.20;;;;;;;10.94;100.00;101858.38;5092280;28;20468;-90
2022/01/06 04:58:07;;;;;;;19.27;3.27;;;;;;;10.91;100.00;101853.22;5059696;28;20425;-90
2022/01/06 05:00:35;;;;;;;12.53;2.80;;;;;;;10.80;100.00;101835.25;5075568;28;20445;-90
2022/01/06 05:03:03;;;;;;;16.33;2.67;;;;;;;10.81;100.00;101830.63;5059261;28;20449;-90
2022/01/06 05:05:31;;;;;;;23.90;3.80;;;;;;;10.84;100.00;101849.44;5076083;28;20434;-88
2022/01/06 05:07:58;;;;;;;13.40;2.90;;;;;;;10.82;100.00;101851.50;5091634;28;20849;-88
2022/01/06 05:10:26;;;;;;;23.93;2.67;;;;;;;10.81;100.00;101858.84;5075882;28;20430;-87
2022/01/06 05:12:54;;;;;;;16.10;3.10;;;;;;;10.74;100.00;101841.41;5059117;28;20472;-87
2022/01/06 05:15:22;;;;;;;10.10;2.60;;;;;;;10.73;100.00;101821.41;5075269;28;20817;-88
2022/01/06 05:17:50;;;;;;;16.80;3.33;;;;;;;10.83;100.00;101836.81;5058847;28;20444;-88
2022/01/06 05:20:24;;;;;;;24.50;3.10;;;;;;;10.86;100.00;101851.00;5059530;28;20434;-88
2022/01/06 05:22:55;;;;;;;34.23;4.73;;;;;;;10.91;100.00;101865.03;5060790;28;20441;-88
2022/01/06 05:25:26;;;;;;;21.50;2.83;;;;;;;10.90;100.00;101859.72;5076187;28;20456;-87
2022/01/06 05:27:54;;;;;;;18.27;3.90;;;;;;;10.87;100.00;101844.50;5059780;28;20492;-88
2022/01/06 05:30:22;;;;;;;22.03;4.50;;;;;;;10.94;100.00;101853.75;5059400;28;20451;-90
2022/01/06 05:32:50;;;;;;;23.10;4.20;;;;;;;10.95;100.00;101860.94;5059351;28;21018;-89
2022/01/06 05:35:18;;;;;;;21.60;3.43;;;;;;;11.01;100.00;101875.78;5059022;28;20812;-90
2022/01/06 05:37:46;;;;;;;18.60;3.10;;;;;;;11.00;100.00;101877.69;5059165;28;20460;-90
2022/01/06 05:40:13;;;;;;;28.83;3.60;;;;;;;10.96;100.00;101862.66;5075677;28;20438;-90
2022/01/06 05:42:41;;;;;;;24.07;3.60;;;;;;;10.93;100.00;101863.00;5075296;28;20444;-90
2022/01/06 05:45:11;;;;;;;20.97;3.90;;;;;;;10.88;100.00;101876.31;5075613;28;20524;-89
2022/01/06 05:47:39;;;;;;;18.23;3.43;;;;;;;10.82;100.00;101876.97;5059113;28;20483;-90
2022/01/06 05:50:08;;;;;;;27.00;3.93;;;;;;;10.78;100.00;101883.78;5075549;28;20437;-89
2022/01/06 05:52:36;;;;;;;18.53;3.13;;;;;;;10.68;100.00;101874.88;5059370;28;20437;-89
2022/01/06 05:55:04;;;;;;;11.07;2.30;;;;;;;10.63;100.00;101866.31;5059092;28;20516;-89
2022/01/06 05:57:32;;;;;;;27.83;3.10;;;;;;;10.58;100.00;101874.19;5058845;28;20434;-89
2022/01/06 06:00:01;;;;;;;12.63;2.87;;;;;;;10.52;100.00;101874.84;5058326;28;20789;-89
2022/01/06 06:06:10;;;;;;;17.80;3.30;;;;;;;10.37;100.00;101877.34;5092950;28;20802;-89
2022/01/06 06:08:38;;;;;;;24.83;4.07;;;;;;;10.44;100.00;101883.00;5075123;28;20546;-89
2022/01/06 06:11:06;;;;;;;14.43;2.90;;;;;;;10.44;100.00;101893.94;5058884;28;20514;-89
2022/01/06 06:13:34;;;;;;;16.37;3.70;;;;;;;10.36;100.00;101892.91;5058594;28;20437;-89
2022/01/06 06:16:02;;;;;;;16.70;3.10;;;;;;;10.34;100.00;101885.88;5060285;28;20978;-89
2022/01/06 06:18:30;;;;;;;13.67;3.30;;;;;;;10.35;100.00;101885.72;5059382;28;20448;-89
2022/01/06 06:20:59;;;;;;;14.13;2.40;;;;;;;10.38;100.00;101879.06;5062119;28;20448;-89
2022/01/06 06:23:26;;;;;;;21.23;3.03;;;;;;;10.37;100.00;101883.69;5095140;28;20524;-89
2022/01/06 06:25:54;;;;;;;19.67;3.00;;;;;;;10.35;100.00;101890.31;5062122;28;20524;-89
2022/01/06 06:28:22;;;;;;;10.90;2.37;;;;;;;10.29;100.00;101891.84;5062369;28;20472;-89
2022/01/06 06:30:50;;;;;;;14.63;2.80;;;;;;;10.25;100.00;101898.63;5096373;28;20441;-89
2022/01/06 06:33:18;;;;;;;18.97;3.00;;;;;;;10.21;100.00;101878.13;5061861;28;20931;-89
2022/01/06 06:35:46;;;;;;;22.90;4.13;;;;;;;10.27;100.00;101877.47;5078240;28;20468;-89
2022/01/06 06:38:13;;;;;;;31.77;3.30;;;;;;;10.30;100.00;101888.06;5078393;28;20512;-89
2022/01/06 06:40:41;;;;;;;14.80;2.37;;;;;;;10.28;100.00;101898.31;5094718;28;20469;-89
2022/01/06 06:43:13;;;;;;;20.80;2.93;;;;;;;10.25;100.00;101895.03;5095095;28;20465;-89
2022/01/06 06:45:41;;;;;;;14.70;2.50;;;;;;;10.28;100.00;101911.97;5095039;28;20445;-89
2022/01/06 06:48:13;;;;;;;13.10;2.30;;;;;;;10.31;100.00;101910.78;5078504;28;20978;-89
2022/01/06 06:50:43;;;;;;;12.80;2.73;;;;;;;10.25;100.00;101911.44;5078714;28;20437;-89
2022/01/06 06:53:13;;;;;;;20.83;2.90;;;;;;;10.18;100.00;101899.44;5094752;28;20447;-89
2022/01/06 06:55:47;;;;;;;22.17;3.07;;;;;;;10.27;100.00;101928.53;5078433;28;20934;-89
2022/01/06 06:58:16;;;;;;;21.43;2.57;;;;;;;10.24;100.00;101910.59;5077527;28;20441;-89
2022/01/06 07:00:52;;;;;;;18.73;2.43;;;;;;;10.24;100.00;101909.72;5063415;28;20520;-89
2022/01/06 07:03:20;;;;;;;9.23;2.23;;;;;;;10.29;100.00;101921.88;5077879;28;20799;-89
2022/01/06 07:05:53;;;;;;;14.30;2.30;;;;;;;10.34;100.00;101930.47;5094873;28;20533;-88
2022/01/06 07:08:21;;;;;;;12.60;1.93;;;;;;;10.26;100.00;101908.53;5078424;28;20558;-89
2022/01/06 07:10:51;;;;;;;14.90;2.33;;;;;;;10.32;100.00;101924.28;5061498;28;20433;-89
2022/01/06 07:13:23;;;;;;;15.63;1.87;;;;;;;10.41;100.00;101921.59;5094281;28;20429;-88
2022/01/06 07:15:51;;;;;;;13.80;2.00;;;;;;;10.47;100.00;101921.78;5061081;28;20473;-89
2022/01/06 07:18:28;;;;;;;12.63;1.83;;;;;;;10.62;100.00;101917.41;5063079;28;20469;-89
2022/01/06 07:20:57;;;;;;;12.33;2.33;;;;;;;10.64;100.00;101917.25;5078400;28;20906;-89
2022/01/06 07:23:38;;;;;;;14.80;2.37;;;;;;;10.71;100.00;101913.69;5065357;28;20448;-89
2022/01/06 07:26:06;;;;;;;10.83;2.30;;;;;;;10.83;100.00;101933.38;5060940;28;20487;-88
2022/01/06 07:28:36;;;;;;;16.70;3.07;;;;;;;10.73;100.00;101916.25;5060786;28;20485;-89
2022/01/06 07:31:04;;;;;;;12.73;2.43;;;;;;;10.80;100.00;101932.84;5095423;28;20898;-89
2022/01/06 07:33:57;;;;;;;11.60;2.30;;;;;;;10.91;100.00;101940.75;5066880;28;20441;-89
2022/01/06 07:36:25;;;;;;;11.40;2.27;;;;;;;10.84;100.00;101935.09;5078130;28;20442;-89
2022/01/06 07:38:53;;;;;;;7.97;2.03;;;;;;;10.95;100.00;101958.56;5061023;28;20449;-89
2022/01/06 07:41:21;;;;;;;10.47;1.90;;;;;;;10.91;100.00;101947.09;5060743;28;20472;-89
2022/01/06 07:43:56;;;;;;;3.93;1.47;;;;;;;10.93;100.00;101950.50;5078410;28;20463;-89
2022/01/06 07:46:28;;;;;;;15.53;2.83;;;;;;;10.88;100.00;101939.22;5077781;28;20433;-89
2022/01/06 07:48:56;;;;;;;6.10;1.73;;;;;;;10.89;100.00;101938.19;5077018;28;20986;-89
2022/01/06 07:51:28;;;;;;;13.00;2.27;;;;;;;10.88;100.00;101944.69;5061020;28;20437;-89
2022/01/06 07:53:59;;;;;;;10.27;1.53;;;;;;;10.84;100.00;101935.09;5093010;28;20520;-89
2022/01/06 07:56:30;;;;;;;16.23;2.80;;;;;;;10.83;100.00;101927.91;5060257;28;20449;-89
2022/01/06 07:59:02;;;;;;;12.23;1.77;;;;;;;10.79;100.00;101937.47;5077174;28;20437;-89
2022/01/06 08:01:30;;;;;;;13.30;2.43;;;;;;;10.84;100.00;101940.56;5076723;28;20430;-89
2022/01/06 08:03:59;;;;;;;10.13;1.70;;;;;;;10.89;100.00;101943.66;5060331;28;20835;-89
2022/01/06 08:06:35;;;;;;;16.67;2.17;;;;;;;10.87;100.00;101940.22;5078220;28;20556;-89
2022/01/06 08:09:06;;;;;;;9.27;2.00;;;;;;;10.88;100.00;101950.16;5093355;28;20485;-89
2022/01/06 08:11:34;;;;;;;19.27;2.10;;;;;;;10.79;100.00;101947.53;5076577;28;20434;-89
2022/01/06 08:14:16;;;;;;;15.20;2.37;;;;;;;10.88;100.00;101969.28;5076689;27;20441;-89
2022/01/06 08:16:43;;;;;;;12.20;2.00;;;;;;;10.91;100.00;101979.91;5099720;27;20471;-88
2022/01/06 08:19:11;;;;;;;17.93;2.67;;;;;;;10.87;100.00;101967.56;5116684;27;20795;-89
2022/01/06 08:21:39;;;;;;;17.00;1.90;;;;;;;10.94;100.00;101968.63;5100391;27;20435;-89
2022/01/06 08:24:07;;;;;;;9.87;1.80;;;;;;;10.89;100.00;101965.53;5083724;27;20469;-89
2022/01/06 08:26:35;;;;;;;16.20;2.67;;;;;;;10.93;100.00;101966.94;5116887;27;20440;-89
2022/01/06 08:29:03;;;;;;;13.60;1.90;;;;;;;10.97;100.00;101970.16;5099867;27;20525;-89
2022/01/06 08:31:31;;;;;;;11.93;2.03;;;;;;;10.96;99.57;101983.00;5116693;27;21041;-89
2022/01/06 08:33:59;;;;;;;14.47;2.53;;;;;;;11.04;99.50;101991.22;5099962;28;20554;-89
2022/01/06 08:36:27;;;;;;;8.37;2.17;;;;;;;11.06;99.13;101980.97;5099950;27;20803;-90
2022/01/06 08:38:54;;;;;;;13.00;2.20;;;;;;;11.13;98.71;101981.16;5099926;27;20442;-89
2022/01/06 08:41:22;;;;;;;18.70;2.50;;;;;;;11.16;98.46;101963.56;5099400;27;20427;-89
2022/01/06 08:43:49;;;;;;;7.57;2.07;;;;;;;11.14;97.81;101962.88;5116664;27;20800;-89
2022/01/06 08:46:17;;;;;;;11.07;2.37;;;;;;;11.14;96.69;101968.34;5134375;27;20439;-89
2022/01/06 08:48:45;;;;;;;12.70;1.80;;;;;;;11.23;96.11;101981.00;5116387;27;20483;-89
2022/01/06 08:51:13;;;;;;;6.10;1.50;;;;;;;11.28;96.38;101981.38;5099954;27;20526;-89
2022/01/06 08:53:41;;;;;;;10.87;2.20;;;;;;;11.25;96.24;101968.88;5116497;27;20432;-89
2022/01/06 08:56:09;;;;;;;11.03;2.17;;;;;;;11.41;95.33;101996.28;5099497;27;20440;-89
2022/01/06 08:58:36;;;;;;;15.10;3.40;;;;;;;11.49;95.63;102005.53;5083158;27;20471;-89
2022/01/06 09:01:06;;;;;;;16.57;3.77;;;;;;;11.57;95.33;102002.78;5099853;27;20439;-89
2022/01/06 09:03:34;;;;;;;19.40;3.27;;;;;;;11.55;94.20;102005.69;5099615;28;20440;-89
2022/01/06 09:06:01;;;;;;;11.77;2.60;;;;;;;11.56;93.51;102007.41;5099180;27;20435;-89
2022/01/06 09:08:29;;;;;;;13.77;2.70;;;;;;;11.58;92.77;102015.44;5099236;28;20479;-89
2022/01/06 09:10:57;;;;;;;11.23;2.63;;;;;;;11.64;93.06;102015.63;5083223;28;20463;-89
2022/01/06 09:13:30;;;;;;;11.97;2.57;;;;;;;11.81;93.50;102032.13;5083860;28;20439;-89
2022/01/06 09:16:03;;;;;;;12.93;2.83;;;;;;;11.76;93.66;102007.97;5100194;28;20475;-89
2022/01/06 09:18:31;;;;;;;6.10;2.03;;;;;;;11.91;93.16;102041.91;5083265;28;20501;-89
2022/01/06 09:21:06;;;;;;;7.80;1.50;;;;;;;11.84;92.53;102016.19;5099009;28;20440;-88
2022/01/06 09:23:40;;;;;;;14.73;2.40;;;;;;;11.93;91.48;102033.50;5116939;28;20458;-89
2022/01/06 09:26:08;;;;;;;11.57;2.70;;;;;;;11.97;92.01;102040.34;5116495;28;20469;-89
2022/01/06 09:28:38;;;;;;;12.40;2.70;;;;;;;11.99;92.65;102030.06;5099777;28;20829;-89
2022/01/06 09:31:05;;;;;;;9.93;2.13;;;;;;;12.13;91.93;102045.81;5099413;28;20492;-89
2022/01/06 09:33:44;;;;;;;7.93;1.57;;;;;;;12.18;91.10;102057.13;5099740;28;20949;-89
2022/01/06 09:36:12;;;;;;;10.97;2.00;;;;;;;12.26;91.11;102050.78;5099980;28;20940;-89
2022/01/06 09:38:42;;;;;;;11.20;2.67;;;;;;;12.34;91.06;102068.06;5082798;28;20447;-89
2022/01/06 09:41:10;;;;;;;10.43;2.30;;;;;;;12.35;90.68;102058.81;5083084;28;20442;-89
2022/01/06 09:43:38;;;;;;;6.00;1.40;;;;;;;12.34;90.49;102054.34;5082444;28;20534;-89
2022/01/06 09:46:11;;;;;;;14.53;1.80;;;;;;;12.43;89.52;102071.66;5099531;28;21013;-89
2022/01/06 09:48:42;;;;;;;10.13;2.30;;;;;;;12.54;90.09;102070.44;5117045;28;20843;-89
2022/01/06 09:51:14;;;;;;;13.00;2.40;;;;;;;12.53;88.57;102071.47;5099797;28;20428;-89
2022/01/06 09:53:43;;;;;;;14.70;2.03;;;;;;;12.67;89.10;102073.50;5102966;27;20480;-89
2022/01/06 09:56:12;;;;;;;12.70;1.80;;;;;;;12.73;89.69;102084.63;5086895;27;21009;-89
2022/01/06 09:58:40;;;;;;;11.63;1.93;;;;;;;12.75;89.76;102065.25;5102963;27;20443;-89
2022/01/06 10:01:08;;;;;;;9.97;3.13;;;;;;;12.77;88.12;102068.66;5103031;27;20467;-89
2022/01/06 10:07:18;;;;;;;11.50;1.80;;;;;;;12.91;87.13;102081.66;5137778;27;20480;-89
2022/01/06 10:09:47;;;;;;;15.57;2.50;;;;;;;12.98;88.21;102082.66;5103124;27;20830;-89
2022/01/06 10:16:44;;;;;;;10.30;1.60;;;;;;;13.21;88.78;102098.41;5117582;27;20443;-88
2022/01/06 10:19:14;;;;;;;11.97;3.33;;;;;;;13.18;88.09;102093.25;5119163;27;20504;-88
2022/01/06 10:21:48;;;;;;;16.33;2.07;;;;;;;13.24;88.02;102109.03;5088386;27;20453;-88
2022/01/06 10:24:24;;;;;;;14.53;2.60;;;;;;;13.20;88.23;102096.69;5101982;27;20499;-88
2022/01/06 10:27:04;;;;;;;10.23;1.97;;;;;;;13.33;88.88;102094.22;5103596;27;20435;-88
2022/01/06 10:33:55;;;;;;;;;;;;;;;;;;;;;
2022/01/06 10:43:57;;;;;;;12.43;2.00;;;;;;;13.62;84.92;102086.19;5137497;27;20893;-88
2022/01/06 10:46:35;;;;;;;14.63;2.90;;;;;;;13.68;85.13;102093.69;5087847;27;20446;-89
2022/01/06 10:49:09;;;;;;;18.40;2.63;;;;;;;13.73;84.95;102088.50;5101766;27;20573;-88
2022/01/06 10:51:54;;;;;;;10.97;2.10;;;;;;;13.75;83.83;102096.56;5087665;27;20805;-88
2022/01/06 10:54:44;;;;;;;11.87;2.30;;;;;;;13.72;82.33;102085.94;5103151;27;20441;-89
2022/01/06 11:01:24;;;;;;;14.17;2.33;;;;;;;13.86;81.76;102096.13;5136688;27;20382;-89
2022/01/06 11:07:56;;;;;;;9.73;1.50;;;;;;;13.92;77.12;102089.06;5136589;27;20888;-88
2022/01/06 11:10:31;;;;;;;13.63;2.03;;;;;;;14.03;78.67;102100.50;5122481;27;20504;-88
2022/01/06 11:13:20;;;;;;;10.77;1.90;;;;;;;13.99;76.41;102092.81;5090847;27;20856;-88
2022/01/06 11:19:59;;;;;;;12.07;2.37;;;;;;;14.20;78.40;102072.88;5112168;27;20815;-88
2022/01/06 11:22:27;;;;;;;12.13;1.97;;;;;;;14.39;78.27;102095.22;5081268;28;20448;-88
2022/01/06 11:28:43;;;;;;;9.83;1.80;;;;;;;14.48;74.62;102082.25;5115522;28;20803;-89
2022/01/06 11:31:21;;;;;;;8.70;1.70;;;;;;;14.49;72.38;102089.47;5081054;28;20444;-89
2022/01/06 11:33:51;;;;;;;13.53;2.67;;;;;;;14.47;72.70;102086.91;5065360;28;20436;-88
2022/01/06 11:36:22;;;;;;;11.60;1.90;;;;;;;14.55;72.51;102101.63;5064605;28;20836;-88
2022/01/06 11:38:51;;;;;;;6.00;1.60;;;;;;;14.46;72.76;102079.69;5097035;28;20441;-89
2022/01/06 11:41:19;;;;;;;6.60;1.40;;;;;;;14.62;71.68;102094.34;5080833;28;20444;-89
2022/01/06 11:43:47;;;;;;;6.40;1.53;;;;;;;14.66;71.80;102087.41;5064443;28;20463;-88
2022/01/06 11:46:16;;;;;;;4.97;1.60;;;;;;;14.75;71.98;102087.16;5081011;28;20829;-88
2022/01/06 11:48:46;;;;;;;9.20;1.90;;;;;;;14.77;72.68;102084.22;5080634;28;20985;-88
2022/01/06 11:51:52;;;;;;;8.10;1.43;;;;;;;14.91;72.66;102094.38;5080782;28;20527;-88
2022/01/06 11:54:20;;;;;;;5.60;1.30;;;;;;;15.05;72.83;102093.50;5096897;28;20922;-88
2022/01/06 11:56:49;;;;;;;8.73;1.70;;;;;;;15.05;70.95;102078.88;5080452;28;20516;-89
2022/01/06 11:59:31;;;;;;;9.20;1.60;;;;;;;15.13;69.55;102085.16;5080614;28;20448;-89
2022/01/06 12:02:02;;;;;;;7.17;1.53;;;;;;;15.17;68.32;102078.22;5097013;28;20468;-89
2022/01/06 12:04:30;;;;;;;14.23;2.20;;;;;;;15.12;67.89;102069.69;5064158;28;20941;-88
2022/01/06 12:07:08;;;;;;;12.57;4.07;;;;;;;15.20;69.48;102071.50;5080493;28;20503;-89
2022/01/06 12:09:37;;;;;;;10.10;1.70;;;;;;;15.28;69.07;102068.59;5063544;28;20467;-88